地図

経路データ

SID SEASON NUMBER BASIN SUBBASIN NAME ISO_TIME NATURE LAT LON WMO_WIND WMO_PRES WMO_AGENCY TRACK_TYPE DIST2LAND LANDFALL IFLAG USA_AGENCY USA_ATCF_ID USA_LAT USA_LON USA_RECORD USA_STATUS USA_WIND USA_PRES USA_SSHS USA_R34_NE USA_R34_SE USA_R34_SW USA_R34_NW USA_R50_NE USA_R50_SE USA_R50_SW USA_R50_NW USA_R64_NE USA_R64_SE USA_R64_SW USA_R64_NW USA_POCI USA_ROCI USA_RMW USA_EYE TOKYO_LAT TOKYO_LON TOKYO_GRADE TOKYO_WIND TOKYO_PRES TOKYO_R50_DIR TOKYO_R50_LONG TOKYO_R50_SHORT TOKYO_R30_DIR TOKYO_R30_LONG TOKYO_R30_SHORT TOKYO_LAND CMA_LAT CMA_LON CMA_CAT CMA_WIND CMA_PRES HKO_LAT HKO_LON HKO_CAT HKO_WIND HKO_PRES NEWDELHI_LAT NEWDELHI_LON NEWDELHI_GRADE NEWDELHI_WIND NEWDELHI_PRES NEWDELHI_CI NEWDELHI_DP NEWDELHI_POCI REUNION_LAT REUNION_LON REUNION_TYPE REUNION_WIND REUNION_PRES REUNION_TNUM REUNION_CI REUNION_RMW REUNION_R34_NE REUNION_R34_SE REUNION_R34_SW REUNION_R34_NW REUNION_R50_NE REUNION_R50_SE REUNION_R50_SW REUNION_R50_NW REUNION_R64_NE REUNION_R64_SE REUNION_R64_SW REUNION_R64_NW BOM_LAT BOM_LON BOM_TYPE BOM_WIND BOM_PRES BOM_TNUM BOM_CI BOM_RMW BOM_R34_NE BOM_R34_SE BOM_R34_SW BOM_R34_NW BOM_R50_NE BOM_R50_SE BOM_R50_SW BOM_R50_NW BOM_R64_NE BOM_R64_SE BOM_R64_SW BOM_R64_NW BOM_ROCI BOM_POCI BOM_EYE BOM_POS_METHOD BOM_PRES_METHOD NADI_LAT NADI_LON NADI_CAT NADI_WIND NADI_PRES WELLINGTON_LAT WELLINGTON_LON WELLINGTON_WIND WELLINGTON_PRES DS824_LAT DS824_LON DS824_STAGE DS824_WIND DS824_PRES TD9636_LAT TD9636_LON TD9636_STAGE TD9636_WIND TD9636_PRES TD9635_LAT TD9635_LON TD9635_WIND TD9635_PRES TD9635_ROCI NEUMANN_LAT NEUMANN_LON NEUMANN_CLASS NEUMANN_WIND NEUMANN_PRES MLC_LAT MLC_LON MLC_CLASS MLC_WIND MLC_PRES USA_GUST BOM_GUST BOM_GUST_PER REUNION_GUST REUNION_GUST_PER USA_SEAHGT USA_SEARAD_NE USA_SEARAD_SE USA_SEARAD_SW USA_SEARAD_NW STORM_SPEED STORM_DIR
1997307N08082 1997 105 NI BB NOT_NAMED 1997-11-02 12:00:00 NR 7.90000 81.6000 main 11 0 O_____________ jtwc_io IO041997 7.90000 81.6000 15 -1 2 209
1997307N08082 1997 105 NI BB NOT_NAMED 1997-11-02 15:00:00 NR 7.80250 81.5500 main 0 0 P_____________ IO041997 7.80250 81.5500 15 -1 2 207
1997307N08082 1997 105 NI BB NOT_NAMED 1997-11-02 18:00:00 NR 7.70000 81.5000 main 0 0 O_____________ jtwc_io IO041997 7.70000 81.5000 15 -1 2 204
1997307N08082 1997 105 NI BB NOT_NAMED 1997-11-02 21:00:00 NR 7.59250 81.4500 main 0 0 P_____________ IO041997 7.59250 81.4500 15 -1 2 207
1997307N08082 1997 105 NI BB NOT_NAMED 1997-11-03 00:00:00 NR 7.50000 81.4000 main 0 0 O_____________ jtwc_io IO041997 7.50000 81.4000 15 -1 2 212
1997307N08082 1997 105 NI BB NOT_NAMED 1997-11-03 03:00:00 NR 7.44250 81.3500 main 0 0 P_____________ IO041997 7.44250 81.3500 15 -1 1 223
1997307N08082 1997 105 NI BB NOT_NAMED 1997-11-03 06:00:00 NR 7.40000 81.3000 main 0 0 O_____________ jtwc_io IO041997 7.40000 81.3000 15 -1 1 225
1997307N08082 1997 105 NI BB NOT_NAMED 1997-11-03 09:00:00 NR 7.35000 81.2500 main 0 0 P_____________ IO041997 7.35000 81.2500 15 -1 1 223
1997307N08082 1997 105 NI BB NOT_NAMED 1997-11-03 12:00:00 NR 7.30000 81.2000 main 0 0 O_____________ jtwc_io IO041997 7.30000 81.2000 15 -1 1 221
1997307N08082 1997 105 NI BB NOT_NAMED 1997-11-03 15:00:00 NR 7.24250 81.1500 main 0 0 P_____________ IO041997 7.24250 81.1500 15 -1 1 223
1997307N08082 1997 105 NI BB NOT_NAMED 1997-11-03 18:00:00 NR 7.20000 81.1000 main 0 0 O_____________ jtwc_io IO041997 7.20000 81.1000 15 -1 1 241
1997307N08082 1997 105 NI BB NOT_NAMED 1997-11-03 21:00:00 NR 7.19250 81.0575 main 0 0 P_____________ IO041997 7.19250 81.0575 15 -1 1 270
1997307N08082 1997 105 NI BB NOT_NAMED 1997-11-04 00:00:00 NR 7.20000 81.0000 main 0 0 O_____________ jtwc_io IO041997 7.20000 81.0000 15 -1 2 270
1997307N08082 1997 105 NI BB NOT_NAMED 1997-11-04 03:00:00 NR 7.19251 80.9000 main 0 0 P_____________ IO041997 7.19251 80.9000 15 -1 2 270
1997307N08082 1997 105 NI BB NOT_NAMED 1997-11-04 06:00:00 NR 7.20000 80.8000 main 0 0 O_____________ jtwc_io IO041997 7.20000 80.8000 15 -1 2 287
1997307N08082 1997 105 NI BB NOT_NAMED 1997-11-04 09:00:00 NR 7.24250 80.7425 main 0 0 P_____________ IO041997 7.24250 80.7425 15 -1 1 317
1997307N08082 1997 105 NI BB NOT_NAMED 1997-11-04 12:00:00 NR 7.30000 80.7000 main 0 0 O_____________ jtwc_io IO041997 7.30000 80.7000 15 -1 1 320
1997307N08082 1997 105 NI BB NOT_NAMED 1997-11-04 15:00:00 NR 7.34250 80.6500 main 0 0 P_____________ IO041997 7.34250 80.6500 15 -1 1 317
1997307N08082 1997 105 NI BB NOT_NAMED 1997-11-04 18:00:00 NR 7.40000 80.6000 main 0 0 O_____________ jtwc_io IO041997 7.40000 80.6000 15 -1 2 328
1997307N08082 1997 105 NI BB NOT_NAMED 1997-11-04 21:00:00 NR 7.49250 80.5500 main 0 0 P_____________ IO041997 7.49250 80.5500 15 -1 2 333
1997307N08082 1997 105 NI BB NOT_NAMED 1997-11-05 00:00:00 NR 7.60000 80.5000 main 0 0 O_____________ jtwc_io IO041997 7.60000 80.5000 15 -1 2 334
1997307N08082 1997 105 NI BB NOT_NAMED 1997-11-05 03:00:00 NR 7.70000 80.4500 main 0 0 P_____________ IO041997 7.70000 80.4500 17 -1 2 333
1997307N08082 1997 105 NI BB NOT_NAMED 1997-11-05 06:00:00 NR 7.80000 80.4000 main 0 0 O_____________ jtwc_io IO041997 7.80000 80.4000 20 -1 2 333
1997307N08082 1997 105 NI BB NOT_NAMED 1997-11-05 09:00:00 NR 7.90000 80.3500 main 0 0 P_____________ IO041997 7.90000 80.3500 20 -1 2 333
1997307N08082 1997 105 NI BB NOT_NAMED 1997-11-05 12:00:00 NR 8.00000 80.3000 main 0 0 O_____________ jtwc_io IO041997 8.00000 80.3000 20 -1 2 333
1997307N08082 1997 105 NI BB NOT_NAMED 1997-11-05 15:00:00 NR 8.09250 80.2500 main 0 0 P_____________ IO041997 8.09250 80.2500 20 -1 2 333
1997307N08082 1997 105 NI BB NOT_NAMED 1997-11-05 18:00:00 NR 8.20000 80.2000 main 0 0 O_____________ jtwc_io IO041997 8.20000 80.2000 20 -1 3 335
1997307N08082 1997 105 NI BB NOT_NAMED 1997-11-05 21:00:00 NR 8.32000 80.1425 main 0 0 P_____________ IO041997 8.32000 80.1425 20 -1 3 343
1997307N08082 1997 105 NI BB NOT_NAMED 1997-11-06 00:00:00 NR 8.50000 80.1000 main 0 0 O_____________ jtwc_io IO041997 8.50000 80.1000 20 -1 5 353
1997307N08082 1997 105 NI BB NOT_NAMED 1997-11-06 03:00:00 NR 8.77750 80.0850 main 0 0 P_____________ IO041997 8.77750 80.0850 20 -1 6 1
1997307N08082 1997 105 NI BB NOT_NAMED 1997-11-06 06:00:00 NR 9.10000 80.1000 main 0 0 O_____________ jtwc_io IO041997 9.10000 80.1000 20 -1 7 6
1997307N08082 1997 105 NI BB NOT_NAMED 1997-11-06 09:00:00 NR 9.42250 80.1500 main 0 0 P_____________ IO041997 9.42250 80.1500 20 -1 6 9
1997307N08082 1997 105 NI BB NOT_NAMED 1997-11-06 12:00:00 NR 9.70000 80.2000 main 0 0 O_____________ jtwc_io IO041997 9.70000 80.2000 20 -1 5 9
1997307N08082 1997 105 NI BB NOT_NAMED 1997-11-06 15:00:00 NR 9.88000 80.2150 main 22 22 P_____________ IO041997 9.88000 80.2150 20 -1 3 0
1997307N08082 1997 105 NI BB NOT_NAMED 1997-11-06 18:00:00 NR 10.0000 80.2000 main 33 33 O_____________ jtwc_io IO041997 10.0000 80.2000 20 -1 2 346
1997307N08082 1997 105 NI BB NOT_NAMED 1997-11-06 21:00:00 NR 10.1225 80.1650 main 39 24 P_____________ IO041997 10.1225 80.1650 20 -1 2 333
1997307N08082 1997 105 NI BB NOT_NAMED 1997-11-07 00:00:00 NR 10.2000 80.1000 main 24 15 O_____________ jtwc_io IO041997 10.2000 80.1000 20 -1 2 303
1997307N08082 1997 105 NI BB NOT_NAMED 1997-11-07 03:00:00 NR 10.2150 80.0225 main 15 11 P_____________ IO041997 10.2150 80.0225 20 -1 2 270
1997307N08082 1997 105 NI BB NOT_NAMED 1997-11-07 06:00:00 NR 10.2000 79.9000 main 11 11 O_____________ jtwc_io IO041997 10.2000 79.9000 20 -1 3 266
1997307N08082 1997 105 NI BB NOT_NAMED 1997-11-07 09:00:00 NR 10.1925 79.7225 main 15 15 P_____________ IO041997 10.1925 79.7225 20 -1 4 270
1997307N08082 1997 105 NI BB NOT_NAMED 1997-11-07 12:00:00 NR 10.2000 79.5000 main 22 10 O_____________ jtwc_io IO041997 10.2000 79.5000 20 -1 4 278
1997307N08082 1997 105 NI BB NOT_NAMED 1997-11-07 15:00:00 NR 10.2499 79.2875 main 10 0 P_____________ IO041997 10.2499 79.2875 20 -1 5 281
1997307N08082 1997 105 NI BB NOT_NAMED 1997-11-07 18:00:00 NR 10.3000 79.0000 main 0 0 O_____________ jtwc_io IO041997 10.3000 79.0000 20 -1 7 275
1997307N08082 1997 105 NI BB NOT_NAMED 1997-11-07 21:00:00 NR 10.3075 78.5875 main 0 0 P_____________ IO041997 10.3075 78.5875 20 -1 9 270
1997307N08082 1997 105 NI BB NOT_NAMED 1997-11-08 00:00:00 NR 10.3000 78.1000 main 0 0 O_____________ jtwc_io IO041997 10.3000 78.1000 20 -1 10 270
1997307N08082 1997 105 NI AS NOT_NAMED 1997-11-08 03:00:00 NR 10.2999 77.6150 main 0 0 P_____________ IO041997 10.2999 77.6150 20 -1 10 270
1997307N08082 1997 105 NI AS NOT_NAMED 1997-11-08 06:00:00 NR 10.3000 77.1000 main 0 0 O_____________ jtwc_io IO041997 10.3000 77.1000 20 -1 10 270
1997307N08082 1997 105 NI AS NOT_NAMED 1997-11-08 09:00:00 NR 10.2999 76.5575 main 0 0 P_____________ IO041997 10.2999 76.5575 22 -1 11 270
1997307N08082 1997 105 NI AS NOT_NAMED 1997-11-08 12:00:00 NR 10.3000 76.0000 main 21 21 O_____________ jtwc_io IO041997 10.3000 76.0000 25 -1 11 270
1997307N08082 1997 105 NI AS NOT_NAMED 1997-11-08 15:00:00 NR 10.2999 75.4575 main 69 69 P_____________ IO041997 10.2999 75.4575 25 -1 11 270
1997307N08082 1997 105 NI AS NOT_NAMED 1997-11-08 18:00:00 NR 10.3000 74.9000 main 122 122 O_____________ jtwc_io IO041997 10.3000 74.9000 25 -1 11 268
1997307N08082 1997 105 NI AS NOT_NAMED 1997-11-08 21:00:00 NR 10.2700 74.2998 main 183 183 P_____________ IO041997 10.2700 74.2998 25 -1 12 270
1997307N08082 1997 105 NI AS NOT_NAMED 1997-11-09 00:00:00 NR 10.3000 73.7000 main 247 247 O_____________ jtwc_io IO041997 10.3000 73.7000 25 -1 12 280
1997307N08082 1997 105 NI AS NOT_NAMED 1997-11-09 03:00:00 NR 10.4774 73.1351 main 284 284 P_____________ IO041997 10.4774 73.1351 25 -1 12 290
1997307N08082 1997 105 NI AS NOT_NAMED 1997-11-09 06:00:00 NR 10.7000 72.6000 main 318 318 O_____________ jtwc_io IO041997 10.7000 72.6000 25 -1 11 290
1997307N08082 1997 105 NI AS NOT_NAMED 1997-11-09 09:00:00 NR 10.8574 72.0924 main 357 357 P_____________ IO041997 10.8574 72.0924 25 -1 10 287
1997307N08082 1997 105 NI AS NOT_NAMED 1997-11-09 12:00:00 NR 11.0000 71.6000 main 401 401 O_____________ jtwc_io IO041997 11.0000 71.6000 25 -1 10 287
1997307N08082 1997 105 NI AS NOT_NAMED 1997-11-09 15:00:00 NR 11.1575 71.0850 main 440 440 P_____________ IO041997 11.1575 71.0850 27 -1 10 287
1997307N08082 1997 105 NI AS NOT_NAMED 1997-11-09 18:00:00 NR 11.3000 70.6000 main 486 486 O_____________ jtwc_io IO041997 11.3000 70.6000 30 -1 9 286
1997307N08082 1997 105 NI AS NOT_NAMED 1997-11-09 21:00:00 NR 11.4074 70.1849 main 524 524 P_____________ IO041997 11.4074 70.1849 30 -1 8 284
1997307N08082 1997 105 NI AS NOT_NAMED 1997-11-10 00:00:00 NR 11.5000 69.8000 main 563 563 O_____________ jtwc_io IO041997 11.5000 69.8000 30 -1 8 284
1997307N08082 1997 105 NI AS NOT_NAMED 1997-11-10 03:00:00 NR 11.5999 69.4000 main 602 602 P_____________ IO041997 11.5999 69.4000 32 -1 8 284
1997307N08082 1997 105 NI AS NOT_NAMED 1997-11-10 06:00:00 NR 11.7000 69.0000 main 642 642 O_____________ jtwc_io IO041997 11.7000 69.0000 35 0 8 284
1997307N08082 1997 105 NI AS NOT_NAMED 1997-11-10 09:00:00 NR 11.7924 68.5999 main 682 682 P_____________ IO041997 11.7924 68.5999 35 0 8 284
1997307N08082 1997 105 NI AS NOT_NAMED 1997-11-10 12:00:00 NR 11.9000 68.2000 main 713 713 O_____________ jtwc_io IO041997 11.9000 68.2000 35 0 8 288
1997307N08082 1997 105 NI AS NOT_NAMED 1997-11-10 15:00:00 NR 12.0425 67.7925 main 745 745 P_____________ IO041997 12.0425 67.7925 40 0 5 277
1997307N08082 1997 105 NI AS NOT_NAMED 1997-11-10 18:00:00 NR 11.9600 67.7200 25 1006 newdelhi main 754 750 O___O_________ jtwc_io IO041997 12.2000 67.4000 45 0 11.0000 69.0000 D 25 1006 1.50000 4 2 192
1997307N08082 1997 105 NI AS NOT_NAMED 1997-11-10 21:00:00 NR 11.8566 67.7552 main 750 750 P___P_________ IO041997 12.3500 67.0350 47 0 10.8698 69.1957 D 25 1006 4 1 203
1997307N08082 1997 105 NI AS NOT_NAMED 1997-11-11 00:00:00 NR 11.8571 67.6857 25 1007 newdelhi main 760 760 O___O_________ jtwc_io IO041997 12.5000 66.7000 50 0 11.0000 69.0000 D 25 1007 1.50000 5 6 291
1997307N08082 1997 105 NI AS NOT_NAMED 1997-11-11 03:00:00 NR 12.0712 67.1962 30 1007 newdelhi main 798 798 P___O_________ IO041997 12.6424 66.3924 52 0 11.5000 68.0000 DD 30 1007 2.00000 5 17 289
1997307N08082 1997 105 NI AS NOT_NAMED 1997-11-11 06:00:00 NR 12.4000 66.0500 30 1007 newdelhi main 895 895 O___O_________ jtwc_io IO041997 12.8000 66.1000 55 0 12.0000 66.0000 DD 30 1007 2.00000 5 17 294
1997307N08082 1997 105 NI AS NOT_NAMED 1997-11-11 09:00:00 NR 12.7831 65.5710 main 926 921 P___P_________ IO041997 13.0000 65.7850 55 0 12.5661 65.3569 DD 30 1006 5 9 323
1997307N08082 1997 105 NI AS NOT_NAMED 1997-11-11 12:00:00 NR 13.1000 65.5000 30 1005 newdelhi main 921 916 O___O_________ jtwc_io IO041997 13.2000 65.5000 55 0 13.0000 65.5000 DD 30 1005 2.00000 5 5 336
1997307N08082 1997 105 NI AS NOT_NAMED 1997-11-11 15:00:00 NR 13.2162 65.3699 main 926 926 P___P_________ IO041997 13.3575 65.2774 55 0 13.0750 65.4623 DD 30 1005 5 2 308
1997307N08082 1997 105 NI AS NOT_NAMED 1997-11-11 18:00:00 NR 13.2500 65.3000 30 1005 newdelhi main 931 931 O___O_________ jtwc_io IO041997 13.5000 65.1000 55 0 13.0000 65.5000 DD 30 1005 2.00000 5 2 287
1997307N08082 1997 105 NI AS NOT_NAMED 1997-11-11 21:00:00 NR 13.2738 65.1702 main 941 941 P___P_________ IO041997 13.6500 64.9425 55 0 12.8976 65.3980 DD 30 1005 5 2 316
1997307N08082 1997 105 NI AS NOT_NAMED 1997-11-12 00:00:00 NR 13.4000 65.1500 30 1005 newdelhi main 937 914 O___O_________ jtwc_io IO041997 13.8000 64.8000 55 0 13.0000 65.5000 DD 30 1005 2.00000 5 5 18
1997307N08082 1997 105 NI AS NOT_NAMED 1997-11-12 03:00:00 NR 13.7250 65.3250 30 1005 newdelhi main 914 882 P___O_________ IO041997 13.9500 64.6500 55 0 13.5000 66.0000 DD 30 1005 2.00000 5 7 28
1997307N08082 1997 105 NI AS NOT_NAMED 1997-11-12 06:00:00 NR 14.0500 65.5000 30 1005 newdelhi main 878 878 O___O_________ jtwc_io IO041997 14.1000 64.5000 55 0 14.0000 66.5000 DD 30 1005 2.00000 5 5 326
1997307N08082 1997 105 NI AS NOT_NAMED 1997-11-12 09:00:00 NR 14.1640 65.0176 main 926 884 P___P_________ IO041997 14.2575 64.3650 55 0 14.0705 65.6702 DD 30 1005 5 11 278
1997307N08082 1997 105 NI AS NOT_NAMED 1997-11-12 12:00:00 NR 14.2000 64.3500 30 1005 newdelhi main 884 854 O___O_________ jtwc_io IO041997 14.4000 64.2000 55 0 14.0000 64.5000 DD 30 1005 2.00000 5 8 286
1997307N08082 1997 105 NI AS NOT_NAMED 1997-11-12 15:00:00 NR 14.3859 64.1949 main 854 838 P___P_________ IO041997 14.5225 63.9650 52 0 14.2492 64.4248 DD 30 1005 5 4 326
1997307N08082 1997 105 NI AS NOT_NAMED 1997-11-12 18:00:00 NR 14.5500 64.1000 30 1005 newdelhi main 831 798 O___O_________ jtwc_io IO041997 14.6000 63.7000 50 0 14.5000 64.5000 DD 30 1005 2.00000 5 5 292
1997307N08082 1997 105 NI AS NOT_NAMED 1997-11-12 21:00:00 NR 14.5748 63.7116 main 798 773 P___P_________ IO041997 14.6149 63.4575 45 0 14.5346 63.9658 DD 30 1005 5 7 270
1997307N08082 1997 105 NI AS NOT_NAMED 1997-11-13 00:00:00 NR 14.5500 63.3500 30 1005 newdelhi main 773 756 O___O_________ jtwc_io IO041997 14.6000 63.2000 40 0 14.5000 63.5000 DD 30 1005 2.00000 5 5 269
1997307N08082 1997 105 NI AS NOT_NAMED 1997-11-13 03:00:00 NR 14.5614 63.1657 30 1005 newdelhi main 756 725 P___O_________ IO041997 14.6075 62.9150 37 0 14.5000 63.5000 DD 30 1005 2.00000 5 6 272
1997307N08082 1997 105 NI AS NOT_NAMED 1997-11-13 06:00:00 NR 14.5667 62.7333 30 1005 newdelhi main 717 686 O___O_________ jtwc_io IO041997 14.6000 62.6000 35 0 14.5000 63.0000 DD 30 1005 2.00000 5 7 277
1997307N08082 1997 105 NI AS NOT_NAMED 1997-11-13 09:00:00 NR 14.6580 62.4060 25 1006 newdelhi main 686 665 P___O_________ IO041997 14.5725 62.2575 35 0 15.0000 63.0000 D 25 1006 1.50000 4 8 265
1997307N08082 1997 105 NI AS NOT_NAMED 1997-11-13 12:00:00 NR 14.5000 61.9000 main 666 654 O_____________ jtwc_io IO041997 14.5000 61.9000 35 0 9 251
1997307N08082 1997 105 NI AS NOT_NAMED 1997-11-13 15:00:00 NR 14.3799 61.5576 main 654 644 P_____________ IO041997 14.3799 61.5576 32 -1 7 246
1997307N08082 1997 105 NI AS NOT_NAMED 1997-11-13 18:00:00 NR 14.2000 61.2000 main 647 641 O_____________ jtwc_io IO041997 14.2000 61.2000 30 -1 8 240
1997307N08082 1997 105 NI AS NOT_NAMED 1997-11-13 21:00:00 NR 13.9652 60.8098 main 641 634 P_____________ IO041997 13.9652 60.8098 30 -1 9 237
1997307N08082 1997 105 NI AS NOT_NAMED 1997-11-14 00:00:00 NR 13.7000 60.4000 main 635 O_____________ jtwc_io IO041997 13.7000 60.4000 30 -1 10 236

IBTrACS Databaseについて

本データベースは、米国NOAAが公開する1842年以降の世界の熱帯低気圧のベストトラックデータアーカイブInternational Best Track Archive for Climate Stewardship (IBTrACS)を、ウェブで閲覧しやすい形式に変換したものです。

最終更新日:2021-10-21